createdAt,value
2017-06-04T00:00:35.264Z,99.58
2017-06-04T00:01:34.956Z,99.99
2017-06-04T00:02:35.287Z,99.78
2017-06-04T00:03:35.311Z,99.78
2017-06-04T00:04:35.337Z,99.92
2017-06-04T00:05:35.063Z,99.73
2017-06-04T00:06:35.388Z,99.44
2017-06-04T00:07:35.416Z,99.99
2017-06-04T00:08:35.446Z,99.99
2017-06-04T00:09:35.466Z,99.99
2017-06-04T00:10:35.491Z,99.99
2017-06-04T00:11:35.517Z,99.99
2017-06-04T00:12:35.543Z,99.99
2017-06-04T00:13:35.567Z,99.99
2017-06-04T00:14:35.292Z,99.99
2017-06-04T00:15:35.618Z,99.99
2017-06-04T00:16:35.643Z,99.99
2017-06-04T00:17:35.670Z,99.99
2017-06-04T00:18:35.696Z,99.99
2017-06-04T00:19:35.721Z,99.99
2017-06-04T00:20:35.751Z,99.99
2017-06-04T00:21:35.469Z,99.99
2017-06-04T00:22:35.798Z,99.99
2017-06-04T00:23:35.821Z,99.99
2017-06-04T00:24:50.467Z,99.99
2017-06-04T00:25:35.874Z,99.99
2017-06-04T00:26:35.900Z,99.99
2017-06-04T00:27:35.924Z,99.99
2017-06-04T00:28:35.952Z,99.99
2017-06-04T00:29:35.978Z,99.99
2017-06-04T00:30:36.003Z,99.99
2017-06-04T00:31:36.029Z,99.99
2017-06-04T00:32:36.069Z,99.99
2017-06-04T00:33:36.095Z,99.99
2017-06-04T00:34:36.120Z,99.99
2017-06-04T00:35:36.129Z,99.99
2017-06-04T00:36:36.157Z,99.99
2017-06-04T00:37:36.186Z,99.99
2017-06-04T00:39:35.928Z,99.99
2017-06-04T00:40:50.875Z,99.99
2017-06-04T00:41:36.283Z,99.99
2017-06-04T00:42:36.309Z,99.99
2017-06-04T00:43:36.333Z,99.99
2017-06-04T00:44:36.361Z,99.99
2017-06-04T00:45:36.384Z,99.99
2017-06-04T00:46:36.412Z,99.99
2017-06-04T00:47:36.436Z,99.99
2017-06-04T00:48:36.461Z,99.99
2017-06-04T00:49:36.486Z,99.99
2017-06-04T00:50:36.526Z,99.99
2017-06-04T00:51:36.538Z,99.99
2017-06-04T00:52:36.261Z,99.99
2017-06-04T00:53:36.589Z,99.99
2017-06-04T00:54:36.647Z,99.99
2017-06-04T00:55:36.640Z,99.99
2017-06-04T00:56:51.333Z,99.99
2017-06-04T00:57:36.690Z,99.99
2017-06-04T00:58:36.719Z,99.99
2017-06-04T00:59:36.742Z,99.99
2017-06-04T01:00:36.766Z,99.99
2017-06-04T01:01:36.793Z,99.99
2017-06-04T01:02:36.821Z,99.99
2017-06-04T01:03:36.849Z,99.99
2017-06-04T01:04:36.868Z,99.99
2017-06-04T01:05:36.894Z,99.99
2017-06-04T01:06:36.919Z,99.99
2017-06-04T01:07:36.946Z,99.99
2017-06-04T01:09:36.996Z,99.99
2017-06-04T01:10:37.022Z,99.99
2017-06-04T01:11:36.743Z,99.99
2017-06-04T01:12:51.689Z,99.99
2017-06-04T01:13:37.098Z,99.99
2017-06-04T01:14:37.122Z,99.99
2017-06-04T01:15:37.147Z,99.99
2017-06-04T01:16:37.176Z,99.99
2017-06-04T01:17:37.199Z,99.99
2017-06-04T01:18:37.226Z,99.99
2017-06-04T01:19:37.250Z,99.99
2017-06-04T01:20:37.276Z,99.99
2017-06-04T01:21:37.300Z,99.99
2017-06-04T01:22:37.324Z,99.99
2017-06-04T01:23:37.352Z,99.99
2017-06-04T01:26:37.427Z,99.99
2017-06-04T01:27:52.070Z,99.99
2017-06-04T01:28:37.478Z,99.99
2017-06-04T01:29:37.501Z,99.99
2017-06-04T01:30:37.534Z,99.99
2017-06-04T01:31:37.553Z,99.99
2017-06-04T01:32:37.578Z,99.99
2017-06-04T01:33:37.604Z,99.99
2017-06-04T01:34:37.630Z,99.99
2017-06-04T01:35:37.655Z,99.99
2017-06-04T01:36:37.684Z,99.99
2017-06-04T01:37:37.706Z,99.99
2017-06-04T01:38:37.730Z,99.99
2017-06-04T01:39:37.758Z,99.99
2017-06-04T01:40:37.784Z,99.99
2017-06-04T01:41:37.807Z,99.99
2017-06-04T01:42:37.830Z,99.99
2017-06-04T01:43:37.858Z,99.99
2017-06-04T01:44:37.883Z,99.99
2017-06-04T01:45:37.912Z,99.99
2017-06-04T01:46:37.932Z,99.99
2017-06-04T01:47:37.957Z,99.99
2017-06-04T01:48:37.983Z,99.99
2017-06-04T01:49:38.007Z,99.99
2017-06-04T01:50:38.033Z,99.99
2017-06-04T01:51:38.060Z,99.99
2017-06-04T01:52:38.084Z,99.99
2017-06-04T01:53:38.109Z,99.99
2017-06-04T01:54:38.135Z,99.99
2017-06-04T01:55:38.167Z,99.99
2017-06-04T01:56:38.186Z,99.99
2017-06-04T01:57:38.211Z,99.99
2017-06-04T01:58:38.234Z,99.99
2017-06-04T01:59:52.878Z,99.99
2017-06-04T02:00:38.287Z,99.99
2017-06-04T02:01:38.313Z,99.99
2017-06-04T02:02:38.035Z,99.99
2017-06-04T02:03:38.361Z,99.99
2017-06-04T02:04:38.386Z,99.99
2017-06-04T02:05:38.413Z,99.99
2017-06-04T02:06:38.134Z,99.99
2017-06-04T02:07:38.160Z,99.99
2017-06-04T02:08:38.187Z,99.99
2017-06-04T02:09:38.514Z,99.99
2017-06-04T02:11:38.563Z,99.99
2017-06-04T02:12:38.287Z,99.99
2017-06-04T02:13:38.315Z,99.99
2017-06-04T02:14:38.641Z,99.99
2017-06-04T02:15:53.283Z,99.99
2017-06-04T02:16:38.387Z,99.99
2017-06-04T02:17:38.715Z,99.99
2017-06-04T02:18:38.743Z,99.99
2017-06-04T02:19:38.766Z,99.99
2017-06-04T02:20:38.793Z,99.99
2017-06-04T02:21:38.817Z,99.99
2017-06-04T02:22:38.892Z,99.99
2017-06-04T02:23:38.868Z,99.99
2017-06-04T02:24:38.891Z,99.99
2017-06-04T02:25:38.615Z,99.99
2017-06-04T02:26:38.640Z,99.99
2017-06-04T02:29:39.019Z,99.99
2017-06-04T02:30:39.044Z,99.99
2017-06-04T02:31:53.688Z,99.99
2017-06-04T02:32:39.095Z,99.99
2017-06-04T02:33:39.122Z,99.99
2017-06-04T02:34:38.843Z,99.99
2017-06-04T02:35:39.175Z,99.99
2017-06-04T02:36:39.198Z,99.99
2017-06-04T02:37:39.524Z,99.99
2017-06-04T02:38:39.248Z,99.99
2017-06-04T02:39:39.273Z,99.99
2017-06-04T02:40:39.298Z,99.99
2017-06-04T02:41:39.323Z,99.99
2017-06-04T02:42:39.347Z,99.99
2017-06-04T02:45:39.425Z,99.99
2017-06-04T02:46:39.498Z,99.99
2017-06-04T02:47:54.091Z,99.99
2017-06-04T02:48:39.196Z,99.99
2017-06-04T02:49:39.223Z,99.99
2017-06-04T02:50:39.551Z,99.99
2017-06-04T02:51:39.576Z,99.99
2017-06-04T02:52:39.600Z,99.99
2017-06-04T02:53:39.624Z,99.99
2017-06-04T02:54:39.650Z,99.99
2017-06-04T02:56:39.703Z,99.99
2017-06-04T02:57:39.726Z,99.99
2017-06-04T02:58:39.751Z,99.99
2017-06-04T03:01:39.829Z,99.99
2017-06-04T03:02:54.471Z,99.99
2017-06-04T03:03:39.879Z,99.99
2017-06-04T03:04:39.904Z,99.99
2017-06-04T03:05:39.929Z,99.99
2017-06-04T03:06:39.652Z,99.99
2017-06-04T03:07:39.980Z,99.99
2017-06-04T03:08:40.004Z,99.99
2017-06-04T03:09:40.030Z,99.99
2017-06-04T03:10:40.057Z,99.99
2017-06-04T03:11:40.086Z,99.99
2017-06-04T03:12:40.106Z,99.99
2017-06-04T03:13:40.131Z,99.99
2017-06-04T03:16:40.207Z,99.99
2017-06-04T03:17:40.233Z,99.99
2017-06-04T03:18:40.257Z,99.99
2017-06-04T03:19:40.282Z,99.99
2017-06-04T03:20:40.308Z,99.99
2017-06-04T03:21:40.334Z,99.99
2017-06-04T03:22:40.358Z,99.99
2017-06-04T03:23:40.383Z,99.99
2017-06-04T03:24:40.410Z,99.99
2017-06-04T03:25:40.436Z,99.99
2017-06-04T03:26:40.156Z,99.99
2017-06-04T03:27:40.486Z,99.99
2017-06-04T03:30:40.560Z,99.99
2017-06-04T03:32:40.614Z,99.99
2017-06-04T03:33:40.636Z,99.99
2017-06-04T03:34:55.279Z,99.99
2017-06-04T03:35:40.687Z,99.99
2017-06-04T03:36:40.712Z,99.99
2017-06-04T03:37:40.736Z,99.99
2017-06-04T03:38:40.761Z,99.99
2017-06-04T03:39:40.788Z,99.99
2017-06-04T03:40:40.814Z,99.99
2017-06-04T03:41:40.837Z,99.99
2017-06-04T03:42:40.864Z,99.99
2017-06-04T03:43:40.888Z,99.99
2017-06-04T03:44:40.914Z,99.99
2017-06-04T03:45:40.943Z,99.99
2017-06-04T03:47:40.989Z,99.99
2017-06-04T03:48:40.712Z,99.99
2017-06-04T03:49:40.737Z,99.99
2017-06-04T03:50:55.683Z,99.99
2017-06-04T03:51:41.092Z,99.99
2017-06-04T03:52:41.117Z,99.99
2017-06-04T03:53:41.179Z,99.99
2017-06-04T03:54:41.168Z,99.99
2017-06-04T03:55:41.191Z,99.99
2017-06-04T03:56:41.219Z,99.99
2017-06-04T03:57:41.242Z,99.99
2017-06-04T03:58:40.964Z,99.99
2017-06-04T03:59:41.293Z,99.99
2017-06-04T04:00:41.318Z,99.99
2017-06-04T04:01:41.345Z,99.99
2017-06-04T04:02:41.371Z,99.99
2017-06-04T04:03:41.396Z,99.99
2017-06-04T04:04:41.423Z,99.99
2017-06-04T04:05:41.142Z,99.99
2017-06-04T04:06:56.088Z,99.99
2017-06-04T04:07:41.499Z,99.99
2017-06-04T04:08:41.522Z,99.99
2017-06-04T04:09:41.597Z,99.99
2017-06-04T04:10:41.575Z,99.99
2017-06-04T04:11:41.598Z,99.99
2017-06-04T04:12:41.627Z,99.99
2017-06-04T04:13:41.647Z,99.99
2017-06-04T04:14:41.673Z,99.99
2017-06-04T04:15:41.700Z,99.99
2017-06-04T04:16:41.726Z,99.99
2017-06-04T04:17:41.748Z,99.99
2017-06-04T04:18:41.773Z,99.99
2017-06-04T04:19:41.800Z,99.99
2017-06-04T04:20:41.825Z,99.99
2017-06-04T04:21:41.850Z,99.99
2017-06-04T04:22:56.493Z,99.99
2017-06-04T04:23:41.900Z,99.99
2017-06-04T04:24:41.927Z,99.99
2017-06-04T04:25:41.950Z,99.99
2017-06-04T04:26:41.979Z,99.99
2017-06-04T04:27:42.004Z,99.99
2017-06-04T04:28:42.026Z,99.99
2017-06-04T04:29:42.052Z,99.99
2017-06-04T04:30:42.080Z,99.99
2017-06-04T04:31:42.104Z,99.99
2017-06-04T04:32:42.129Z,99.99
2017-06-04T04:33:42.158Z,99.99
2017-06-04T04:34:42.187Z,99.99
2017-06-04T04:36:42.232Z,99.99
2017-06-04T04:37:56.874Z,99.99
2017-06-04T04:38:42.282Z,99.99
2017-06-04T04:39:42.003Z,99.99
2017-06-04T04:40:42.030Z,99.99
2017-06-04T04:41:42.358Z,99.99
2017-06-04T04:42:42.080Z,99.99
2017-06-04T04:43:42.108Z,99.99
2017-06-04T04:45:42.158Z,99.99
2017-06-04T04:46:42.182Z,99.99
2017-06-04T04:48:42.537Z,99.99
2017-06-04T04:49:42.260Z,99.99
2017-06-04T04:50:42.587Z,99.99
2017-06-04T04:51:42.309Z,99.99
2017-06-04T04:52:42.335Z,99.99
2017-06-04T04:53:42.664Z,99.99
2017-06-04T04:54:42.739Z,99.99
2017-06-04T04:55:42.714Z,99.99
2017-06-04T04:56:42.741Z,99.99
2017-06-04T04:57:42.770Z,99.99
2017-06-04T04:58:42.791Z,99.99
2017-06-04T04:59:42.815Z,99.99
2017-06-04T05:00:42.843Z,99.99
2017-06-04T05:01:42.868Z,99.99
2017-06-04T05:02:42.892Z,99.99
2017-06-04T05:03:42.614Z,99.99
2017-06-04T05:05:42.968Z,99.99
2017-06-04T05:07:43.019Z,99.99
2017-06-04T05:08:43.044Z,99.99
2017-06-04T05:09:57.688Z,99.99
2017-06-04T05:10:43.096Z,99.99
2017-06-04T05:11:43.122Z,99.99
2017-06-04T05:12:43.146Z,99.99
2017-06-04T05:13:43.173Z,99.99
2017-06-04T05:14:43.199Z,99.99
2017-06-04T05:15:43.224Z,99.99
2017-06-04T05:16:43.251Z,99.99
2017-06-04T05:17:43.273Z,99.99
2017-06-04T05:18:43.300Z,99.99
2017-06-04T05:19:43.325Z,99.99
2017-06-04T05:21:43.376Z,99.99
2017-06-04T05:23:43.427Z,99.99
2017-06-04T05:24:43.456Z,99.99
2017-06-04T05:25:58.095Z,99.99
2017-06-04T05:26:43.505Z,99.99
2017-06-04T05:27:43.528Z,99.99
2017-06-04T05:28:43.554Z,99.99
2017-06-04T05:29:43.580Z,99.99
2017-06-04T05:30:43.607Z,99.99
2017-06-04T05:31:43.633Z,99.99
2017-06-04T05:32:43.657Z,99.99
2017-06-04T05:33:43.378Z,99.99
2017-06-04T05:34:43.707Z,99.99
2017-06-04T05:35:43.734Z,99.99
2017-06-04T05:36:43.758Z,99.99
2017-06-04T05:37:43.784Z,99.99
2017-06-04T05:39:43.835Z,99.99
2017-06-04T05:40:43.862Z,99.99
2017-06-04T05:41:58.504Z,99.99
2017-06-04T05:42:43.911Z,99.99
2017-06-04T05:43:43.939Z,99.99
2017-06-04T05:44:43.964Z,99.99
2017-06-04T05:45:43.989Z,99.99
2017-06-04T05:46:44.019Z,99.99
2017-06-04T05:47:44.040Z,99.99
2017-06-04T05:48:43.763Z,99.99
2017-06-04T05:49:44.091Z,99.99
2017-06-04T05:50:44.119Z,99.99
2017-06-04T05:51:44.144Z,99.99
2017-06-04T05:52:44.168Z,99.99
2017-06-04T05:53:44.197Z,99.99
2017-06-04T05:55:44.247Z,99.99
2017-06-04T05:56:44.277Z,99.99
2017-06-04T05:57:58.914Z,99.99
2017-06-04T05:58:44.327Z,99.99
2017-06-04T05:59:44.347Z,99.99
2017-06-04T06:00:44.375Z,99.99
2017-06-04T06:01:44.398Z,99.99
2017-06-04T06:02:44.426Z,99.99
2017-06-04T06:03:44.449Z,99.99
2017-06-04T06:04:44.475Z,99.99
2017-06-04T06:05:44.501Z,99.99
2017-06-04T06:06:44.529Z,99.99
2017-06-04T06:07:44.552Z,99.99
2017-06-04T06:08:44.579Z,99.99
2017-06-04T06:09:44.603Z,99.99
2017-06-04T06:11:44.353Z,99.99
2017-06-04T06:12:59.300Z,99.99
2017-06-04T06:13:44.708Z,99.99
2017-06-04T06:14:44.732Z,99.99
2017-06-04T06:15:44.759Z,99.99
2017-06-04T06:16:44.788Z,99.99
2017-06-04T06:17:44.840Z,99.99
2017-06-04T06:18:44.835Z,99.99
2017-06-04T06:19:44.861Z,99.99
2017-06-04T06:20:44.888Z,99.99
2017-06-04T06:21:44.913Z,99.99
2017-06-04T06:22:44.939Z,99.99
2017-06-04T06:23:44.968Z,99.99
2017-06-04T06:24:44.991Z,99.99
2017-06-04T06:25:45.016Z,99.99
2017-06-04T06:26:45.043Z,99.99
2017-06-04T06:27:45.068Z,99.99
2017-06-04T06:28:45.096Z,99.99
2017-06-04T06:29:45.119Z,99.99
2017-06-04T06:30:45.144Z,99.99
2017-06-04T06:31:45.169Z,99.99
2017-06-04T06:32:45.196Z,99.99
2017-06-04T06:33:45.223Z,99.99
2017-06-04T06:34:45.246Z,99.99
2017-06-04T06:35:45.275Z,99.99
2017-06-04T06:36:45.300Z,99.99
2017-06-04T06:37:45.324Z,99.99
2017-06-04T06:38:45.351Z,99.99
2017-06-04T06:39:45.376Z,99.99
2017-06-04T06:42:45.453Z,99.99
2017-06-04T06:43:45.479Z,99.99
2017-06-04T06:45:00.122Z,99.99
2017-06-04T06:45:45.530Z,99.99
2017-06-04T06:46:45.557Z,99.99
2017-06-04T06:47:45.581Z,99.99
2017-06-04T06:48:45.607Z,99.99
2017-06-04T06:49:45.632Z,99.99
2017-06-04T06:50:45.659Z,99.99
2017-06-04T06:51:45.685Z,99.99
2017-06-04T06:52:45.710Z,99.99
2017-06-04T06:53:45.735Z,99.99
2017-06-04T06:54:45.763Z,99.99
2017-06-04T06:55:45.791Z,99.99
2017-06-04T06:59:45.922Z,99.99
2017-06-04T07:01:00.534Z,99.99
2017-06-04T07:01:45.942Z,99.99
2017-06-04T07:02:45.967Z,99.99
2017-06-04T07:03:45.994Z,99.99
2017-06-04T07:04:46.020Z,99.99
2017-06-04T07:05:46.045Z,99.99
2017-06-04T07:06:46.070Z,99.99
2017-06-04T07:07:46.096Z,99.99
2017-06-04T07:08:46.122Z,99.99
2017-06-04T07:09:46.147Z,99.99
2017-06-04T07:10:46.173Z,99.99
2017-06-04T07:11:46.200Z,99.99
2017-06-04T07:14:46.275Z,99.99
2017-06-04T07:15:45.998Z,99.99
2017-06-04T07:17:00.945Z,99.99
2017-06-04T07:17:46.353Z,99.99
2017-06-04T07:18:46.379Z,99.99
2017-06-04T07:19:46.407Z,99.99
2017-06-04T07:20:46.431Z,99.99
2017-06-04T07:21:46.456Z,99.99
2017-06-04T07:22:46.482Z,99.99
2017-06-04T07:23:46.508Z,99.99
2017-06-04T07:24:46.584Z,99.99
2017-06-04T07:25:46.561Z,99.99
2017-06-04T07:26:46.586Z,99.99
2017-06-04T07:27:46.610Z,99.99
2017-06-04T07:28:46.640Z,99.99
2017-06-04T07:29:46.663Z,99.99
2017-06-04T07:30:46.688Z,99.99
2017-06-04T07:31:46.713Z,99.99
2017-06-04T07:33:01.357Z,99.99
2017-06-04T07:33:46.766Z,99.99
2017-06-04T07:34:46.792Z,99.99
2017-06-04T07:35:46.817Z,99.99
2017-06-04T07:36:46.842Z,99.99
2017-06-04T07:37:46.871Z,99.99
2017-06-04T07:38:46.892Z,99.99
2017-06-04T07:39:46.919Z,99.99
2017-06-04T07:40:46.944Z,99.99
2017-06-04T07:42:46.997Z,99.99
2017-06-04T07:43:47.022Z,99.99
2017-06-04T07:44:47.047Z,99.99
2017-06-04T07:46:47.101Z,99.99
2017-06-04T07:48:01.744Z,99.99
2017-06-04T07:48:47.152Z,99.99
2017-06-04T07:49:47.176Z,99.99
2017-06-04T07:50:47.203Z,99.99
2017-06-04T07:51:46.927Z,99.99
2017-06-04T07:52:47.254Z,99.99
2017-06-04T07:53:47.279Z,99.99
2017-06-04T07:54:47.306Z,99.99
2017-06-04T07:55:47.028Z,99.99
2017-06-04T07:56:47.356Z,99.99
2017-06-04T07:57:47.383Z,99.99
2017-06-04T07:58:47.408Z,99.99
2017-06-04T07:59:47.433Z,99.99
2017-06-04T08:00:47.459Z,99.99
2017-06-04T08:01:47.485Z,99.99
2017-06-04T08:02:47.510Z,99.99
2017-06-04T08:03:47.536Z,99.99
2017-06-04T08:04:47.562Z,99.99
2017-06-04T08:05:47.590Z,99.99
2017-06-04T08:06:47.614Z,99.99
2017-06-04T08:07:47.639Z,99.99
2017-06-04T08:08:47.363Z,99.99
2017-06-04T08:09:47.690Z,99.99
2017-06-04T08:10:47.716Z,99.99
2017-06-04T08:11:47.742Z,99.99
2017-06-04T08:12:47.768Z,99.99
2017-06-04T08:13:47.793Z,99.99
2017-06-04T08:14:47.819Z,99.99
2017-06-04T08:15:47.844Z,99.99
2017-06-04T08:16:47.871Z,99.99
2017-06-04T08:17:47.895Z,99.99
2017-06-04T08:18:47.923Z,99.99
2017-06-04T08:20:02.565Z,99.99
2017-06-04T08:20:47.974Z,99.99
2017-06-04T08:21:47.999Z,99.99
2017-06-04T08:22:48.026Z,99.99
2017-06-04T08:23:48.049Z,99.99
2017-06-04T08:24:48.074Z,99.99
2017-06-04T08:25:48.100Z,99.99
2017-06-04T08:26:48.125Z,99.99
2017-06-04T08:27:48.152Z,99.99
2017-06-04T08:28:47.873Z,99.99
2017-06-04T08:29:48.203Z,99.99
2017-06-04T08:30:48.227Z,99.99
2017-06-04T08:31:48.303Z,99.99
2017-06-04T08:33:48.303Z,99.99
2017-06-04T08:34:48.328Z,99.99
2017-06-04T08:36:02.973Z,99.99
2017-06-04T08:36:48.380Z,99.99
2017-06-04T08:37:48.406Z,99.99
2017-06-04T08:38:48.430Z,99.99
2017-06-04T08:39:48.469Z,99.99
2017-06-04T08:40:48.482Z,99.99
2017-06-04T08:41:48.507Z,99.99
2017-06-04T08:42:48.535Z,99.99
2017-06-04T08:43:48.256Z,99.99
2017-06-04T08:44:48.583Z,99.99
2017-06-04T08:45:48.609Z,99.99
2017-06-04T08:46:48.634Z,99.99
2017-06-04T08:47:48.660Z,99.99
2017-06-04T08:48:48.687Z,99.99
2017-06-04T08:49:48.711Z,99.99
2017-06-04T08:50:48.738Z,99.99
2017-06-04T08:52:03.379Z,99.99
2017-06-04T08:52:48.788Z,99.99
2017-06-04T08:53:48.813Z,99.99
2017-06-04T08:54:48.839Z,99.99
2017-06-04T08:55:48.863Z,99.99
2017-06-04T08:56:48.893Z,99.99
2017-06-04T08:57:48.917Z,99.99
2017-06-04T08:58:48.942Z,99.99
2017-06-04T08:59:48.968Z,99.99
2017-06-04T09:00:48.691Z,99.99
2017-06-04T09:01:49.019Z,99.99
2017-06-04T09:02:49.044Z,99.99
2017-06-04T09:03:49.069Z,99.99
2017-06-04T09:04:49.095Z,99.99
2017-06-04T09:05:49.121Z,99.99
2017-06-04T09:06:49.146Z,99.99
2017-06-04T09:08:03.790Z,99.99
2017-06-04T09:08:49.198Z,99.99
2017-06-04T09:09:49.223Z,99.99
2017-06-04T09:10:49.250Z,99.99
2017-06-04T09:11:48.973Z,99.99
2017-06-04T09:12:49.301Z,99.99
2017-06-04T09:13:49.326Z,99.99
2017-06-04T09:14:49.351Z,99.99
2017-06-04T09:15:49.378Z,99.99
2017-06-04T09:16:49.405Z,99.99
2017-06-04T09:17:49.430Z,99.99
2017-06-04T09:18:49.462Z,99.99
2017-06-04T09:19:49.480Z,99.99
2017-06-04T09:20:49.204Z,99.99
2017-06-04T09:21:49.554Z,99.99
2017-06-04T09:23:04.176Z,99.99
2017-06-04T09:23:49.585Z,99.99
2017-06-04T09:24:49.612Z,99.99
2017-06-04T09:25:49.635Z,99.99
2017-06-04T09:26:49.661Z,99.99
2017-06-04T09:27:49.687Z,99.99
2017-06-04T09:28:49.713Z,99.99
2017-06-04T09:29:49.736Z,99.99
2017-06-04T09:30:49.763Z,99.99
2017-06-04T09:31:49.792Z,99.99
2017-06-04T09:32:49.813Z,99.99
2017-06-04T09:33:49.839Z,99.99
2017-06-04T09:34:49.865Z,99.99
2017-06-04T09:35:49.892Z,99.99
2017-06-04T09:36:49.916Z,99.99
2017-06-04T09:37:49.942Z,99.99
2017-06-04T09:38:49.967Z,99.99
2017-06-04T09:39:50.017Z,99.99
2017-06-04T09:40:50.019Z,99.99
2017-06-04T09:41:50.044Z,99.99
2017-06-04T09:42:50.069Z,99.99
2017-06-04T09:43:50.097Z,99.99
2017-06-04T09:44:50.122Z,99.99
2017-06-04T09:45:50.147Z,99.99
2017-06-04T09:46:50.170Z,99.99
2017-06-04T09:47:50.195Z,99.99
2017-06-04T09:48:50.228Z,99.99
2017-06-04T09:49:50.248Z,99.99
2017-06-04T09:50:50.271Z,99.99
2017-06-04T09:51:50.298Z,99.99
2017-06-04T09:52:50.323Z,99.99
2017-06-04T09:53:50.354Z,99.99
2017-06-04T09:55:04.990Z,99.99
2017-06-04T09:55:50.398Z,99.99
2017-06-04T09:56:50.428Z,99.99
2017-06-04T09:57:50.449Z,99.99
2017-06-04T09:58:50.473Z,99.99
2017-06-04T09:59:50.499Z,99.99
2017-06-04T10:00:50.221Z,99.99
2017-06-04T10:01:50.246Z,99.99
2017-06-04T10:02:50.575Z,99.99
2017-06-04T10:03:50.600Z,99.99
2017-06-04T10:04:50.624Z,99.99
2017-06-04T10:05:50.651Z,99.99
2017-06-04T10:06:50.676Z,99.99
2017-06-04T10:07:50.400Z,99.99
2017-06-04T10:08:50.725Z,99.99
2017-06-04T10:09:50.750Z,99.99
2017-06-04T10:11:05.392Z,99.99
2017-06-04T10:11:50.499Z,99.99
2017-06-04T10:12:50.823Z,99.99
2017-06-04T10:13:50.898Z,99.99
2017-06-04T10:14:50.876Z,99.99
2017-06-04T10:15:50.948Z,99.99
2017-06-04T10:16:50.620Z,99.99
2017-06-04T10:17:50.950Z,99.99
2017-06-04T10:18:50.975Z,99.99
2017-06-04T10:19:51.000Z,99.99
2017-06-04T10:20:51.027Z,99.99
2017-06-04T10:21:51.049Z,99.99
2017-06-04T10:24:51.124Z,99.99
2017-06-04T10:25:51.152Z,99.99
2017-06-04T10:27:05.791Z,99.99
2017-06-04T10:27:51.200Z,99.99
2017-06-04T10:28:51.226Z,99.99
2017-06-04T10:29:51.248Z,99.99
2017-06-04T10:30:51.273Z,99.99
2017-06-04T10:31:51.298Z,99.99
2017-06-04T10:32:51.324Z,99.99
2017-06-04T10:33:51.353Z,99.99
2017-06-04T10:34:51.372Z,99.99
2017-06-04T10:35:51.399Z,99.99
2017-06-04T10:36:51.424Z,99.99
2017-06-04T10:37:51.453Z,99.99
2017-06-04T10:40:51.528Z,99.99
2017-06-04T10:41:51.547Z,99.99
2017-06-04T10:43:06.191Z,99.99
2017-06-04T10:43:51.598Z,99.99
2017-06-04T10:44:51.624Z,99.99
2017-06-04T10:45:51.649Z,99.99
2017-06-04T10:46:51.674Z,99.99
2017-06-04T10:47:51.698Z,99.99
2017-06-04T10:48:51.724Z,99.99
2017-06-04T10:49:51.752Z,99.99
2017-06-04T10:50:51.774Z,99.99
2017-06-04T10:51:51.798Z,99.99
2017-06-04T10:52:51.825Z,99.99
2017-06-04T10:54:51.878Z,99.99
2017-06-04T10:56:51.925Z,99.99
2017-06-04T10:58:06.568Z,99.99
2017-06-04T10:58:51.976Z,99.99
2017-06-04T10:59:51.999Z,99.99
2017-06-04T11:00:52.126Z,99.99
2017-06-04T11:01:52.052Z,99.99
2017-06-04T11:02:52.075Z,99.99
2017-06-04T11:03:52.101Z,99.99
2017-06-04T11:04:52.125Z,99.99
2017-06-04T11:05:52.153Z,99.99
2017-06-04T11:06:52.175Z,99.99
2017-06-04T11:07:52.201Z,99.99
2017-06-04T11:09:52.253Z,99.99
2017-06-04T11:10:52.281Z,99.99
2017-06-04T11:11:52.303Z,99.99
2017-06-04T11:12:52.326Z,99.99
2017-06-04T11:13:52.353Z,99.99
2017-06-04T11:14:52.073Z,99.99
2017-06-04T11:15:52.404Z,99.99
2017-06-04T11:16:52.427Z,99.99
2017-06-04T11:17:52.452Z,99.99
2017-06-04T11:18:52.479Z,99.99
2017-06-04T11:19:52.504Z,99.99
2017-06-04T11:20:52.529Z,99.99
2017-06-04T11:21:52.251Z,99.99
2017-06-04T11:22:52.276Z,99.99
2017-06-04T11:23:52.603Z,99.99
2017-06-04T11:24:52.630Z,99.99
2017-06-04T11:27:52.711Z,99.99
2017-06-04T11:28:52.732Z,99.99
2017-06-04T11:30:07.387Z,99.99
2017-06-04T11:30:52.782Z,99.99
2017-06-04T11:31:52.807Z,99.99
2017-06-04T11:32:52.832Z,99.99
2017-06-04T11:33:52.858Z,99.99
2017-06-04T11:34:52.888Z,99.99
2017-06-04T11:35:52.911Z,99.99
2017-06-04T11:36:52.934Z,99.99
2017-06-04T11:37:52.960Z,99.99
2017-06-04T11:38:52.986Z,99.99
2017-06-04T11:39:53.011Z,99.99
2017-06-04T11:40:53.037Z,99.99
2017-06-04T11:41:53.062Z,99.99
2017-06-04T11:42:53.123Z,99.99
2017-06-04T11:43:53.113Z,99.99
2017-06-04T11:44:53.139Z,99.99
2017-06-04T11:46:07.782Z,99.99
2017-06-04T11:46:53.190Z,99.99
2017-06-04T11:47:53.214Z,99.99
2017-06-04T11:48:53.240Z,99.99
2017-06-04T11:49:53.271Z,99.99
2017-06-04T11:50:53.291Z,99.99
2017-06-04T11:51:53.316Z,99.99
2017-06-04T11:52:53.344Z,99.99
2017-06-04T11:53:53.368Z,99.99
2017-06-04T11:54:53.392Z,99.99
2017-06-04T11:55:53.418Z,99.99
2017-06-04T11:56:53.444Z,99.99
2017-06-04T11:57:53.469Z,99.99
2017-06-04T11:59:53.520Z,99.99
2017-06-04T12:00:53.545Z,99.99
2017-06-04T12:02:08.188Z,99.99
2017-06-04T12:02:53.597Z,99.99
2017-06-04T12:03:53.621Z,99.99
2017-06-04T12:04:53.646Z,99.99
2017-06-04T12:05:53.672Z,99.99
2017-06-04T12:06:53.697Z,99.99
2017-06-04T12:07:53.724Z,99.99
2017-06-04T12:08:53.749Z,99.99
2017-06-04T12:09:53.468Z,99.99
2017-06-04T12:10:53.799Z,99.99
2017-06-04T12:11:53.822Z,99.99
2017-06-04T12:12:53.857Z,99.99
2017-06-04T12:13:53.873Z,99.99
2017-06-04T12:14:53.596Z,99.99
2017-06-04T12:15:53.925Z,99.99
2017-06-04T12:16:53.949Z,99.99
2017-06-04T12:18:08.592Z,99.99
2017-06-04T12:18:53.999Z,99.99
2017-06-04T12:19:54.025Z,99.99
2017-06-04T12:20:54.049Z,99.99
2017-06-04T12:21:54.074Z,99.99
2017-06-04T12:22:54.099Z,99.99
2017-06-04T12:23:54.129Z,99.99
2017-06-04T12:24:54.154Z,99.99
2017-06-04T12:25:54.175Z,99.99
2017-06-04T12:26:54.200Z,99.99
2017-06-04T12:27:54.225Z,99.99
2017-06-04T12:28:54.251Z,99.99
2017-06-04T12:29:54.277Z,99.99
2017-06-04T12:30:54.302Z,99.99
2017-06-04T12:31:54.328Z,99.99
2017-06-04T12:33:08.970Z,99.99
2017-06-04T12:33:54.380Z,99.99
2017-06-04T12:34:54.402Z,99.99
2017-06-04T12:35:54.428Z,99.99
2017-06-04T12:36:54.457Z,99.99
2017-06-04T12:37:54.479Z,99.99
2017-06-04T12:38:54.505Z,99.99
2017-06-04T12:39:54.531Z,99.99
2017-06-04T12:40:54.556Z,99.99
2017-06-04T12:41:54.580Z,99.99
2017-06-04T12:42:54.605Z,99.99
2017-06-04T12:44:54.685Z,99.99
2017-06-04T12:45:54.692Z,99.99
2017-06-04T12:46:54.708Z,99.99
2017-06-04T12:47:54.733Z,99.99
2017-06-04T12:48:54.760Z,99.99
2017-06-04T12:49:54.784Z,99.99
2017-06-04T12:50:54.808Z,99.99
2017-06-04T12:51:54.839Z,99.99
2017-06-04T12:52:54.859Z,99.99
2017-06-04T12:53:54.886Z,99.99
2017-06-04T12:54:54.916Z,99.99
2017-06-04T12:55:54.939Z,99.99
2017-06-04T12:56:54.964Z,99.99
2017-06-04T12:57:54.990Z,99.99
2017-06-04T12:58:55.015Z,99.99
2017-06-04T12:59:55.044Z,99.99
2017-06-04T13:00:54.762Z,99.99
2017-06-04T13:01:55.091Z,99.99
2017-06-04T13:02:55.117Z,99.99
2017-06-04T13:03:55.144Z,99.99
2017-06-04T13:05:09.786Z,99.99
2017-06-04T13:05:55.195Z,99.99
2017-06-04T13:06:55.220Z,99.99
2017-06-04T13:07:55.244Z,99.99
2017-06-04T13:08:55.269Z,99.99
2017-06-04T13:09:55.294Z,99.99
2017-06-04T13:10:55.321Z,99.99
2017-06-04T13:11:55.347Z,99.99
2017-06-04T13:12:55.372Z,99.99
2017-06-04T13:13:55.396Z,99.99
2017-06-04T13:14:55.431Z,99.99
2017-06-04T13:15:55.497Z,99.99
2017-06-04T13:16:55.474Z,99.99
2017-06-04T13:18:55.524Z,99.99
2017-06-04T13:19:55.550Z,99.99
2017-06-04T13:21:10.193Z,99.99
2017-06-04T13:21:55.601Z,99.78
2017-06-04T13:22:55.625Z,99.59
2017-06-04T13:23:55.348Z,97.81
2017-06-04T13:24:55.677Z,95.5
2017-06-04T13:25:55.704Z,94.25
2017-06-04T13:26:55.728Z,95.36
2017-06-04T13:27:55.755Z,95.84
2017-06-04T13:28:55.780Z,95.36
2017-06-04T13:29:55.805Z,95.45
2017-06-04T13:30:55.832Z,96.42
2017-06-04T13:31:55.907Z,96.51
2017-06-04T13:33:55.910Z,98.58
2017-06-04T13:34:55.631Z,97.62
2017-06-04T13:35:55.962Z,96.66
2017-06-04T13:37:10.604Z,97.14
2017-06-04T13:37:56.013Z,97.81
2017-06-04T13:38:56.038Z,96.37
2017-06-04T13:39:56.065Z,96.85
2017-06-04T13:40:56.090Z,96.27
2017-06-04T13:41:56.116Z,95.89
2017-06-04T13:42:56.142Z,96.56
2017-06-04T13:43:55.865Z,95.65